Time;durP1;ratioP1;P1;durP2;ratioP2;P2;SDS_P1;SDS_P2;PMS_P1;PMS_P2;Temp;Humidity;BMP_temperature;BMP_pressure;BME280_temperature;BME280_humidity;BME280_pressure;Samples;Min_cycle;Max_cycle;Signal;HPM_P1;HPM_P2
2021/12/18 00:00:51;;;;;;;33.60;18.43;;;;;;;;;;5017090;28;20287;-76
2021/12/18 00:03:19;;;;;;;29.77;17.70;;;;;;;;;;5013067;28;20295;-76
2021/12/18 00:05:46;;;;;;;31.23;18.97;;;;;;;;;;5028897;28;20232;-77
2021/12/18 00:08:14;;;;;;;31.07;18.93;;;;;;;;;;5032123;28;20287;-76
2021/12/18 00:10:42;;;;;;;33.77;17.83;;;;;;;;;;5027094;28;20239;-76
2021/12/18 00:13:10;;;;;;;31.50;18.13;;;;;;;;;;5031274;28;20349;-76
2021/12/18 00:15:37;;;;;;;33.80;18.40;;;;;;;;;;5025472;28;20300;-76
2021/12/18 00:18:04;;;;;;;29.77;17.53;;;;;;;;;;5020629;28;20252;-76
2021/12/18 00:20:32;;;;;;;31.43;17.73;;;;;;;;;;5012682;28;20292;-76
2021/12/18 00:22:59;;;;;;;30.43;18.33;;;;;;;;;;5020432;28;20304;-76
2021/12/18 00:25:26;;;;;;;31.80;17.43;;;;;;;;;;5023136;28;20200;-76
2021/12/18 00:27:53;;;;;;;29.67;18.10;;;;;;;;;;5031732;28;20296;-76
2021/12/18 00:30:22;;;;;;;30.30;18.23;;;;;;;;;;5030622;28;20208;-76
2021/12/18 00:32:50;;;;;;;30.63;19.20;;;;;;;;;;5029651;28;20258;-76
2021/12/18 00:35:17;;;;;;;29.60;18.70;;;;;;;;;;5029973;28;20283;-76
2021/12/18 00:37:45;;;;;;;33.43;18.33;;;;;;;;;;5013664;28;20239;-76
2021/12/18 00:40:20;;;;;;;32.97;19.23;;;;;;;;;;5011918;28;20255;-76
2021/12/18 00:42:51;;;;;;;32.93;18.63;;;;;;;;;;5018221;28;20596;-76
2021/12/18 00:45:19;;;;;;;34.80;19.10;;;;;;;;;;5031458;28;20200;-76
2021/12/18 00:47:48;;;;;;;33.10;18.77;;;;;;;;;;5031603;28;20213;-76
2021/12/18 00:50:16;;;;;;;32.47;18.60;;;;;;;;;;5021515;28;20297;-76
2021/12/18 00:52:43;;;;;;;31.40;18.90;;;;;;;;;;5014487;28;20635;-76
2021/12/18 00:55:11;;;;;;;30.03;18.07;;;;;;;;;;5030705;28;20286;-76
2021/12/18 00:57:38;;;;;;;31.07;18.73;;;;;;;;;;5030070;28;20326;-76
2021/12/18 01:00:07;;;;;;;30.13;18.47;;;;;;;;;;5027011;28;20247;-76
2021/12/18 01:02:36;;;;;;;33.80;18.57;;;;;;;;;;5019127;28;20232;-76
2021/12/18 01:05:05;;;;;;;32.50;19.27;;;;;;;;;;5012191;28;20209;-76
2021/12/18 01:07:33;;;;;;;34.80;19.07;;;;;;;;;;5030405;28;20290;-76
2021/12/18 01:10:09;;;;;;;36.37;19.93;;;;;;;;;;5014498;28;20197;-76
2021/12/18 01:12:40;;;;;;;31.20;17.83;;;;;;;;;;5018920;28;20203;-76
2021/12/18 01:15:17;;;;;;;31.23;18.87;;;;;;;;;;5030670;28;20212;-76
2021/12/18 01:23:16;;;;;;;32.00;18.63;;;;;;;;;;5030279;28;20311;-76
2021/12/18 01:25:43;;;;;;;35.70;20.10;;;;;;;;;;5031272;28;20204;-76
2021/12/18 01:28:10;;;;;;;32.53;18.80;;;;;;;;;;5027443;28;20295;-76
2021/12/18 01:30:37;;;;;;;35.80;19.90;;;;;;;;;;5027722;28;20294;-76
2021/12/18 01:33:04;;;;;;;31.43;19.17;;;;;;;;;;5028115;28;20202;-76
2021/12/18 01:35:33;;;;;;;33.63;20.00;;;;;;;;;;5022875;28;20365;-76
2021/12/18 01:38:00;;;;;;;34.83;19.87;;;;;;;;;;5017858;28;20775;-76
2021/12/18 01:40:27;;;;;;;31.63;19.83;;;;;;;;;;5011129;28;20214;-76
2021/12/18 01:46:00;;;;;;;33.67;19.63;;;;;;;;;;5020245;28;20286;-76
2021/12/18 01:51:34;;;;;;;36.50;20.70;;;;;;;;;;5020899;28;20249;-76
2021/12/18 01:54:02;;;;;;;35.23;19.53;;;;;;;;;;5011895;28;20214;-76
2021/12/18 01:56:29;;;;;;;36.77;20.23;;;;;;;;;;5022226;28;20326;-76
2021/12/18 01:58:56;;;;;;;37.97;21.10;;;;;;;;;;5027574;28;20305;-76
2021/12/18 02:01:24;;;;;;;39.83;23.50;;;;;;;;;;5027795;28;20681;-76
2021/12/18 02:03:51;;;;;;;38.43;22.77;;;;;;;;;;5020540;28;20287;-76
2021/12/18 02:06:20;;;;;;;44.53;24.90;;;;;;;;;;5028351;28;20279;-76
2021/12/18 02:08:47;;;;;;;51.70;27.13;;;;;;;;;;5017774;28;20201;-76
2021/12/18 02:11:26;;;;;;;42.60;24.20;;;;;;;;;;5030550;28;20271;-76
2021/12/18 02:14:23;;;;;;;37.33;22.20;;;;;;;;;;5026666;28;20204;-76
2021/12/18 02:19:50;;;;;;;35.50;21.53;;;;;;;;;;5027461;28;20329;-76
2021/12/18 02:22:20;;;;;;;39.03;22.17;;;;;;;;;;5033610;28;20830;-75
2021/12/18 02:24:47;;;;;;;41.23;22.73;;;;;;;;;;5023436;28;20942;-76
2021/12/18 02:27:14;;;;;;;40.30;22.93;;;;;;;;;;5025804;28;20646;-76
2021/12/18 02:29:42;;;;;;;44.67;23.07;;;;;;;;;;5033169;28;20205;-76
2021/12/18 02:32:15;;;;;;;38.47;22.20;;;;;;;;;;5034013;28;20307;-76
2021/12/18 02:34:51;;;;;;;41.10;22.47;;;;;;;;;;5026102;28;20588;-76
2021/12/18 02:37:24;;;;;;;39.87;22.77;;;;;;;;;;5019992;28;20203;-76
2021/12/18 02:42:38;;;;;;;34.83;20.17;;;;;;;;;;5018463;28;20209;-76
2021/12/18 02:45:07;;;;;;;35.60;21.23;;;;;;;;;;5033540;28;20286;-76
2021/12/18 02:47:35;;;;;;;35.53;20.43;;;;;;;;;;5033077;28;20260;-76
2021/12/18 02:50:02;;;;;;;35.93;20.80;;;;;;;;;;5017909;28;20214;-76
2021/12/18 02:52:31;;;;;;;37.37;21.07;;;;;;;;;;5022586;28;20250;-76
2021/12/18 02:54:59;;;;;;;35.50;20.17;;;;;;;;;;5029233;28;20211;-76
2021/12/18 02:57:26;;;;;;;35.43;20.63;;;;;;;;;;5016602;28;20313;-76
2021/12/18 02:59:57;;;;;;;35.37;19.93;;;;;;;;;;5014281;28;20290;-76
2021/12/18 03:02:25;;;;;;;34.87;20.37;;;;;;;;;;5014510;28;20222;-76
2021/12/18 03:04:57;;;;;;;36.83;20.73;;;;;;;;;;5027316;28;20239;-76
2021/12/18 03:07:26;;;;;;;32.13;19.37;;;;;;;;;;5014079;28;20202;-76
2021/12/18 03:24:09;;;;;;;34.10;18.93;;;;;;;;;;5031655;28;20283;-76
2021/12/18 03:26:38;;;;;;;32.33;18.80;;;;;;;;;;5015874;28;20221;-76
2021/12/18 03:29:05;;;;;;;31.87;18.10;;;;;;;;;;5013741;28;20253;-76
2021/12/18 03:31:33;;;;;;;29.13;17.80;;;;;;;;;;5018317;28;20281;-76
2021/12/18 03:34:01;;;;;;;31.17;18.37;;;;;;;;;;5023266;28;20197;-76
2021/12/18 03:36:28;;;;;;;30.73;17.43;;;;;;;;;;5024436;28;20220;-76
2021/12/18 03:38:55;;;;;;;28.97;18.03;;;;;;;;;;5023608;28;20299;-76
2021/12/18 03:41:23;;;;;;;30.07;17.47;;;;;;;;;;5013481;28;20247;-76
2021/12/18 03:43:51;;;;;;;28.30;16.70;;;;;;;;;;5013379;28;20204;-76
2021/12/18 03:46:18;;;;;;;28.60;16.80;;;;;;;;;;5021529;28;20288;-76
2021/12/18 03:48:46;;;;;;;25.50;16.53;;;;;;;;;;5032349;28;20220;-76
2021/12/18 03:51:13;;;;;;;29.50;17.03;;;;;;;;;;5014546;28;20238;-76
2021/12/18 03:53:40;;;;;;;28.03;16.87;;;;;;;;;;5024666;28;20241;-76
2021/12/18 03:56:07;;;;;;;28.00;17.27;;;;;;;;;;5019959;28;20330;-76
2021/12/18 03:58:35;;;;;;;29.23;17.03;;;;;;;;;;5017235;28;20305;-76
2021/12/18 04:01:03;;;;;;;32.23;18.00;;;;;;;;;;5025155;28;20231;-76
2021/12/18 04:03:31;;;;;;;26.80;16.43;;;;;;;;;;5031123;28;20295;-76
2021/12/18 04:05:58;;;;;;;29.80;17.23;;;;;;;;;;5028106;28;20289;-76
2021/12/18 04:08:25;;;;;;;28.63;16.23;;;;;;;;;;5032526;28;20260;-76
2021/12/18 04:10:53;;;;;;;28.73;17.50;;;;;;;;;;5032435;28;20207;-76
2021/12/18 04:13:20;;;;;;;26.97;16.97;;;;;;;;;;5032616;28;20557;-76
2021/12/18 04:15:47;;;;;;;27.60;16.90;;;;;;;;;;5030293;28;20206;-76
2021/12/18 04:18:16;;;;;;;29.43;17.33;;;;;;;;;;5022086;28;20274;-76
2021/12/18 04:20:43;;;;;;;27.13;16.87;;;;;;;;;;5030416;28;20249;-76
2021/12/18 04:23:10;;;;;;;29.03;16.97;;;;;;;;;;5025605;28;20217;-76
2021/12/18 04:25:37;;;;;;;28.53;16.60;;;;;;;;;;5026888;28;20287;-76
2021/12/18 04:28:05;;;;;;;27.67;17.37;;;;;;;;;;5030118;28;20203;-76
2021/12/18 04:30:32;;;;;;;27.40;16.43;;;;;;;;;;5026377;28;20225;-76
2021/12/18 04:32:59;;;;;;;27.63;17.33;;;;;;;;;;5028926;28;20262;-76
2021/12/18 04:35:28;;;;;;;31.00;17.77;;;;;;;;;;5030620;28;20308;-76
2021/12/18 04:37:56;;;;;;;31.13;17.83;;;;;;;;;;5028982;28;20212;-76
2021/12/18 04:40:26;;;;;;;27.33;16.70;;;;;;;;;;5027550;28;20578;-76
2021/12/18 04:42:53;;;;;;;29.50;17.17;;;;;;;;;;5028187;28;20200;-76
2021/12/18 04:45:20;;;;;;;26.40;17.10;;;;;;;;;;5022076;28;20287;-76
2021/12/18 04:47:47;;;;;;;27.87;16.83;;;;;;;;;;5018191;28;20293;-76
2021/12/18 04:50:15;;;;;;;26.63;16.90;;;;;;;;;;5024504;28;20286;-76
2021/12/18 04:52:44;;;;;;;29.40;17.30;;;;;;;;;;5028387;28;20289;-76
2021/12/18 04:55:11;;;;;;;27.23;16.30;;;;;;;;;;5029525;28;20201;-76
2021/12/18 04:57:38;;;;;;;27.20;16.50;;;;;;;;;;5021407;28;20318;-76
2021/12/18 05:00:07;;;;;;;28.73;17.13;;;;;;;;;;5026947;28;20545;-76
2021/12/18 05:02:38;;;;;;;28.13;16.93;;;;;;;;;;5017167;28;20285;-76
2021/12/18 05:05:06;;;;;;;28.17;16.93;;;;;;;;;;5017508;28;20272;-76
2021/12/18 05:07:33;;;;;;;29.80;17.93;;;;;;;;;;5013339;28;20602;-76
2021/12/18 05:10:02;;;;;;;29.23;18.00;;;;;;;;;;5016604;28;20280;-76
2021/12/18 05:12:29;;;;;;;28.67;17.73;;;;;;;;;;5012107;28;20201;-76
2021/12/18 05:14:56;;;;;;;30.07;18.10;;;;;;;;;;5012847;28;20230;-76
2021/12/18 05:17:23;;;;;;;28.73;17.87;;;;;;;;;;5011771;28;20292;-76
2021/12/18 05:19:51;;;;;;;31.17;17.50;;;;;;;;;;5017679;28;20276;-76
2021/12/18 05:22:18;;;;;;;29.10;17.77;;;;;;;;;;5011742;28;20269;-76
2021/12/18 05:24:45;;;;;;;32.17;18.43;;;;;;;;;;5018509;28;20731;-76
2021/12/18 05:27:14;;;;;;;29.03;16.77;;;;;;;;;;5022877;28;20291;-75
2021/12/18 05:29:41;;;;;;;27.87;16.73;;;;;;;;;;5016360;28;20245;-76
2021/12/18 05:32:08;;;;;;;29.87;18.13;;;;;;;;;;5026885;28;20296;-76
2021/12/18 05:34:37;;;;;;;31.30;17.63;;;;;;;;;;5029048;28;20206;-76
2021/12/18 05:37:19;;;;;;;29.40;18.07;;;;;;;;;;5031029;28;20280;-76
2021/12/18 05:39:47;;;;;;;29.50;18.17;;;;;;;;;;5029516;28;20806;-76
2021/12/18 05:42:16;;;;;;;27.50;16.97;;;;;;;;;;5015260;28;20301;-76
2021/12/18 05:44:44;;;;;;;30.20;18.13;;;;;;;;;;5026183;28;20299;-76
2021/12/18 05:47:11;;;;;;;28.30;16.40;;;;;;;;;;5016415;28;20284;-75
2021/12/18 05:49:39;;;;;;;29.10;16.77;;;;;;;;;;5021139;28;20290;-75
2021/12/18 05:52:07;;;;;;;28.13;17.20;;;;;;;;;;5034219;28;20572;-76
2021/12/18 05:54:35;;;;;;;32.73;17.40;;;;;;;;;;5029896;28;20279;-76
2021/12/18 05:57:03;;;;;;;28.43;17.47;;;;;;;;;;5025262;28;20623;-76
2021/12/18 05:59:32;;;;;;;34.07;18.23;;;;;;;;;;5021889;28;20322;-76
2021/12/18 06:01:59;;;;;;;31.37;18.53;;;;;;;;;;5016323;28;20288;-76
2021/12/18 06:04:26;;;;;;;32.17;18.13;;;;;;;;;;5034669;28;20300;-76
2021/12/18 06:07:03;;;;;;;34.10;18.33;;;;;;;;;;5035142;28;20297;-75
2021/12/18 06:09:30;;;;;;;31.70;18.10;;;;;;;;;;5034384;28;20203;-76
2021/12/18 06:11:58;;;;;;;31.83;19.13;;;;;;;;;;5033629;28;20200;-76
2021/12/18 06:14:25;;;;;;;34.17;19.63;;;;;;;;;;5034563;28;20287;-76
2021/12/18 06:16:54;;;;;;;34.73;19.27;;;;;;;;;;5028449;28;20576;-76
2021/12/18 06:19:21;;;;;;;34.53;19.53;;;;;;;;;;5021567;28;20306;-76
2021/12/18 06:21:48;;;;;;;31.47;19.67;;;;;;;;;;5033125;28;20284;-76
2021/12/18 06:24:16;;;;;;;35.93;19.40;;;;;;;;;;5028136;28;20237;-76
2021/12/18 06:26:44;;;;;;;31.13;18.60;;;;;;;;;;5028686;28;20552;-76
2021/12/18 06:29:11;;;;;;;33.60;19.83;;;;;;;;;;5020920;28;20189;-75
2021/12/18 06:31:39;;;;;;;36.60;18.97;;;;;;;;;;5025846;28;20239;-75
2021/12/18 06:34:08;;;;;;;33.30;19.57;;;;;;;;;;5032091;28;20200;-76
2021/12/18 06:36:35;;;;;;;32.63;18.87;;;;;;;;;;5014362;28;20252;-75
2021/12/18 06:39:02;;;;;;;31.37;18.97;;;;;;;;;;5028064;28;20274;-76
2021/12/18 06:41:30;;;;;;;33.20;18.60;;;;;;;;;;5033835;28;20296;-76
2021/12/18 06:43:57;;;;;;;33.83;18.77;;;;;;;;;;5018484;28;20300;-75
2021/12/18 06:46:24;;;;;;;31.47;18.27;;;;;;;;;;5014443;28;20232;-76
2021/12/18 06:48:51;;;;;;;30.77;18.67;;;;;;;;;;5016058;28;20197;-76
2021/12/18 06:51:20;;;;;;;29.33;17.03;;;;;;;;;;5025940;28;20232;-76
2021/12/18 06:53:48;;;;;;;29.43;17.90;;;;;;;;;;5021258;28;20211;-76
2021/12/18 06:56:16;;;;;;;26.87;15.63;;;;;;;;;;5030302;28;20690;-76
2021/12/18 06:58:43;;;;;;;32.93;17.87;;;;;;;;;;5013419;28;20296;-75
2021/12/18 07:01:10;;;;;;;28.43;17.37;;;;;;;;;;5022097;28;20288;-76
2021/12/18 07:03:38;;;;;;;29.87;17.07;;;;;;;;;;5017388;28;20288;-76
2021/12/18 07:06:05;;;;;;;30.83;18.10;;;;;;;;;;5033551;28;20633;-76
2021/12/18 07:08:34;;;;;;;29.37;17.87;;;;;;;;;;5033616;28;20285;-76
2021/12/18 07:11:01;;;;;;;28.97;17.20;;;;;;;;;;5022150;28;20279;-76
2021/12/18 07:13:29;;;;;;;26.37;16.70;;;;;;;;;;5025682;28;20287;-75
2021/12/18 07:15:56;;;;;;;28.77;17.67;;;;;;;;;;5018160;28;20792;-76
2021/12/18 07:18:23;;;;;;;31.47;17.20;;;;;;;;;;5029821;28;20211;-76
2021/12/18 07:20:51;;;;;;;30.10;17.00;;;;;;;;;;5032636;28;20358;-76
2021/12/18 07:23:18;;;;;;;29.67;18.10;;;;;;;;;;5028936;28;20204;-76
2021/12/18 07:25:47;;;;;;;30.77;17.67;;;;;;;;;;5018099;28;20629;-75
2021/12/18 07:28:14;;;;;;;32.70;18.30;;;;;;;;;;5016658;28;20293;-75
2021/12/18 07:30:41;;;;;;;28.80;17.27;;;;;;;;;;5033202;28;20287;-76
2021/12/18 07:33:11;;;;;;;31.17;18.50;;;;;;;;;;5033231;28;20288;-76
2021/12/18 07:35:38;;;;;;;29.93;17.70;;;;;;;;;;5032868;28;20571;-75
2021/12/18 07:38:05;;;;;;;27.97;17.40;;;;;;;;;;5030189;28;20200;-76
2021/12/18 07:40:33;;;;;;;30.30;17.77;;;;;;;;;;5017361;28;20304;-76
2021/12/18 07:43:01;;;;;;;29.23;17.37;;;;;;;;;;5025480;28;20698;-76
2021/12/18 07:45:33;;;;;;;26.00;16.53;;;;;;;;;;5025533;28;20284;-76
2021/12/18 07:48:00;;;;;;;28.60;17.17;;;;;;;;;;5032392;28;20238;-76
2021/12/18 07:50:27;;;;;;;27.87;17.23;;;;;;;;;;5025451;28;20295;-76
2021/12/18 07:52:54;;;;;;;28.37;16.93;;;;;;;;;;5028349;28;20224;-76
2021/12/18 07:55:22;;;;;;;27.50;16.70;;;;;;;;;;5021984;28;20286;-76
2021/12/18 07:57:50;;;;;;;27.90;17.60;;;;;;;;;;5029893;28;20396;-76
2021/12/18 08:00:20;;;;;;;29.07;17.50;;;;;;;;;;5028059;28;20220;-77
2021/12/18 08:02:47;;;;;;;27.17;16.87;;;;;;;;;;5019630;28;20288;-77
2021/12/18 08:05:15;;;;;;;25.80;16.97;;;;;;;;;;5013238;28;20296;-76
2021/12/18 08:07:42;;;;;;;25.80;16.57;;;;;;;;;;5021669;28;20201;-77
2021/12/18 08:10:10;;;;;;;28.83;17.57;;;;;;;;;;5032326;28;20291;-77
2021/12/18 08:12:37;;;;;;;27.20;17.47;;;;;;;;;;5030259;28;20233;-77
2021/12/18 08:15:05;;;;;;;27.20;16.60;;;;;;;;;;5030639;28;20648;-77
2021/12/18 08:17:33;;;;;;;26.37;15.57;;;;;;;;;;5012991;28;20291;-77
2021/12/18 08:20:01;;;;;;;24.47;15.83;;;;;;;;;;5023702;28;20255;-77
2021/12/18 08:22:28;;;;;;;22.00;15.23;;;;;;;;;;5015153;28;20596;-77
2021/12/18 08:24:55;;;;;;;23.10;15.43;;;;;;;;;;5013443;28;20296;-77
2021/12/18 08:27:23;;;;;;;21.93;14.93;;;;;;;;;;5018847;28;20279;-78
2021/12/18 08:29:50;;;;;;;22.83;15.87;;;;;;;;;;5018842;28;20200;-77
2021/12/18 08:32:17;;;;;;;20.70;14.87;;;;;;;;;;5012702;28;20295;-77
2021/12/18 08:34:46;;;;;;;19.30;14.17;;;;;;;;;;5028493;28;20280;-77
2021/12/18 08:37:13;;;;;;;20.07;14.37;;;;;;;;;;5025611;28;20280;-77
2021/12/18 08:39:40;;;;;;;21.00;14.87;;;;;;;;;;5019942;28;20237;-78
2021/12/18 08:42:08;;;;;;;20.20;14.63;;;;;;;;;;5024205;28;20279;-77
2021/12/18 08:44:36;;;;;;;19.50;14.57;;;;;;;;;;5019898;28;20232;-77
2021/12/18 08:47:04;;;;;;;20.47;14.37;;;;;;;;;;5031220;28;20239;-77
2021/12/18 08:49:31;;;;;;;20.97;14.17;;;;;;;;;;5018348;28;20284;-77
2021/12/18 08:51:59;;;;;;;18.27;13.37;;;;;;;;;;5026899;28;20288;-78
2021/12/18 08:54:27;;;;;;;18.23;13.97;;;;;;;;;;5011716;28;20233;-78
2021/12/18 08:56:54;;;;;;;19.47;13.77;;;;;;;;;;5019606;28;20331;-77
2021/12/18 08:59:21;;;;;;;18.27;13.43;;;;;;;;;;5031739;28;20295;-78
2021/12/18 09:01:48;;;;;;;20.13;13.83;;;;;;;;;;5030979;28;20291;-78
2021/12/18 09:04:15;;;;;;;17.53;13.73;;;;;;;;;;5031218;28;20287;-78
2021/12/18 09:06:43;;;;;;;17.87;13.80;;;;;;;;;;5020429;28;20580;-78
2021/12/18 09:09:11;;;;;;;16.90;13.50;;;;;;;;;;5016492;28;20284;-78
2021/12/18 09:11:39;;;;;;;18.00;12.87;;;;;;;;;;5014543;28;20217;-78
2021/12/18 09:14:06;;;;;;;18.17;13.57;;;;;;;;;;5019123;28;20300;-78
2021/12/18 09:16:33;;;;;;;16.40;13.37;;;;;;;;;;5015005;28;20236;-78
2021/12/18 09:19:01;;;;;;;18.33;14.27;;;;;;;;;;5013862;28;20243;-78
2021/12/18 09:21:28;;;;;;;17.73;13.57;;;;;;;;;;5030711;28;20239;-78
2021/12/18 09:23:55;;;;;;;20.30;15.07;;;;;;;;;;5013796;28;20287;-78
2021/12/18 09:26:24;;;;;;;17.13;13.30;;;;;;;;;;5011147;28;20197;-78
2021/12/18 09:28:51;;;;;;;17.93;14.50;;;;;;;;;;5012775;28;20783;-78
2021/12/18 09:31:18;;;;;;;18.53;13.90;;;;;;;;;;5030241;28;20243;-77
2021/12/18 09:33:45;;;;;;;17.80;13.67;;;;;;;;;;5026228;28;20829;-78
2021/12/18 09:36:12;;;;;;;19.63;14.50;;;;;;;;;;5019346;28;20290;-78
2021/12/18 09:38:40;;;;;;;18.20;14.00;;;;;;;;;;5026731;28;20218;-78
2021/12/18 09:41:08;;;;;;;16.87;13.37;;;;;;;;;;5020689;28;20319;-77
2021/12/18 09:43:37;;;;;;;18.83;13.17;;;;;;;;;;5018223;28;20592;-77
2021/12/18 09:46:05;;;;;;;17.27;12.87;;;;;;;;;;5020654;28;20210;-77
2021/12/18 09:48:32;;;;;;;18.93;14.07;;;;;;;;;;5015922;28;20284;-78
2021/12/18 09:50:59;;;;;;;18.10;13.67;;;;;;;;;;5035975;28;20635;-77
2021/12/18 09:53:27;;;;;;;19.50;14.03;;;;;;;;;;5029696;28;20193;-77
2021/12/18 09:55:54;;;;;;;17.87;13.73;;;;;;;;;;5021179;28;20230;-77
2021/12/18 09:58:22;;;;;;;18.50;13.50;;;;;;;;;;5011570;28;20207;-77
2021/12/18 10:00:50;;;;;;;19.63;14.07;;;;;;;;;;5015892;28;20274;-78
2021/12/18 10:03:17;;;;;;;19.33;13.60;;;;;;;;;;5022535;28;20328;-78
2021/12/18 10:05:45;;;;;;;18.07;13.40;;;;;;;;;;5024813;28;20609;-78
2021/12/18 10:08:14;;;;;;;18.20;13.60;;;;;;;;;;5028682;28;20284;-78
2021/12/18 10:10:58;;;;;;;19.17;13.40;;;;;;;;;;5020352;28;20197;-78
2021/12/18 10:13:26;;;;;;;17.20;13.20;;;;;;;;;;5018132;28;20589;-78
2021/12/18 10:16:08;;;;;;;17.63;13.30;;;;;;;;;;5022199;28;20343;-78
2021/12/18 10:18:37;;;;;;;17.53;13.33;;;;;;;;;;5018427;28;20209;-78
2021/12/18 10:21:11;;;;;;;18.13;13.37;;;;;;;;;;5025564;28;20715;-78
2021/12/18 10:23:39;;;;;;;17.33;13.00;;;;;;;;;;5020942;28;20300;-78
2021/12/18 10:26:06;;;;;;;18.20;13.23;;;;;;;;;;5018018;28;20288;-78
2021/12/18 10:28:43;;;;;;;18.73;12.80;;;;;;;;;;5013037;28;20715;-78
2021/12/18 10:31:11;;;;;;;17.27;13.53;;;;;;;;;;5030572;28;20626;-78
2021/12/18 10:33:39;;;;;;;18.80;14.17;;;;;;;;;;5014499;28;20613;-77
2021/12/18 10:36:14;;;;;;;17.77;13.37;;;;;;;;;;5020178;28;20205;-78
2021/12/18 10:38:45;;;;;;;17.63;13.10;;;;;;;;;;5032304;28;20204;-78
2021/12/18 10:41:26;;;;;;;17.30;13.60;;;;;;;;;;5024569;28;20224;-78
2021/12/18 10:43:54;;;;;;;17.27;12.80;;;;;;;;;;5022247;28;20239;-76
2021/12/18 10:46:22;;;;;;;15.00;12.30;;;;;;;;;;5029107;28;20284;-76
2021/12/18 10:48:56;;;;;;;17.87;13.03;;;;;;;;;;5029073;28;20201;-76
2021/12/18 10:51:25;;;;;;;16.10;12.27;;;;;;;;;;5031425;28;20195;-76
2021/12/18 10:53:53;;;;;;;17.63;13.13;;;;;;;;;;5032975;28;20291;-76
2021/12/18 10:56:32;;;;;;;18.63;12.27;;;;;;;;;;5032290;28;20228;-76
2021/12/18 10:58:59;;;;;;;16.87;12.60;;;;;;;;;;5028365;28;20299;-76
2021/12/18 11:01:26;;;;;;;14.60;11.93;;;;;;;;;;5026358;28;21612;-76
2021/12/18 11:03:53;;;;;;;15.17;11.90;;;;;;;;;;5025294;28;20291;-76
2021/12/18 11:06:23;;;;;;;17.20;12.43;;;;;;;;;;5023048;28;20724;-76
2021/12/18 11:08:53;;;;;;;16.77;12.33;;;;;;;;;;5031360;28;20680;-75
2021/12/18 11:14:05;;;;;;;15.17;11.83;;;;;;;;;;5027484;28;20191;-76
2021/12/18 11:16:35;;;;;;;15.73;11.93;;;;;;;;;;5031413;28;20232;-76
2021/12/18 11:19:04;;;;;;;16.67;12.30;;;;;;;;;;5028372;28;20663;-76
2021/12/18 11:21:32;;;;;;;15.53;11.23;;;;;;;;;;5026617;28;20217;-76
2021/12/18 11:24:04;;;;;;;17.60;11.83;;;;;;;;;;5026103;28;20587;-78
2021/12/18 11:26:33;;;;;;;14.33;11.83;;;;;;;;;;5026952;28;20224;-78
2021/12/18 11:29:03;;;;;;;16.67;11.63;;;;;;;;;;5016769;28;20224;-78
2021/12/18 11:31:31;;;;;;;15.57;11.70;;;;;;;;;;5025468;28;20304;-78
2021/12/18 11:33:58;;;;;;;14.53;11.07;;;;;;;;;;5013435;28;20233;-78
2021/12/18 11:36:26;;;;;;;13.93;11.60;;;;;;;;;;5013573;28;20300;-78
2021/12/18 11:38:54;;;;;;;14.93;11.37;;;;;;;;;;5032209;28;20232;-78
2021/12/18 11:41:22;;;;;;;14.53;11.37;;;;;;;;;;5032855;28;20303;-78
2021/12/18 11:43:49;;;;;;;15.97;11.97;;;;;;;;;;5022820;28;20293;-78
2021/12/18 11:46:31;;;;;;;15.33;11.87;;;;;;;;;;5016939;28;20224;-78
2021/12/18 11:48:59;;;;;;;13.93;10.70;;;;;;;;;;5026155;28;20205;-78
2021/12/18 11:51:27;;;;;;;14.20;10.77;;;;;;;;;;5026092;28;20193;-78
2021/12/18 11:53:55;;;;;;;14.43;10.97;;;;;;;;;;5026098;28;20288;-77
2021/12/18 11:56:23;;;;;;;13.23;10.57;;;;;;;;;;5027915;28;20267;-78
2021/12/18 11:58:51;;;;;;;13.93;10.87;;;;;;;;;;5013356;28;20201;-77
2021/12/18 12:01:20;;;;;;;12.80;10.50;;;;;;;;;;5024086;28;20212;-77
2021/12/18 12:03:56;;;;;;;13.73;10.80;;;;;;;;;;5032378;28;20835;-77
2021/12/18 12:06:28;;;;;;;13.53;10.23;;;;;;;;;;5032556;28;20200;-77
2021/12/18 12:09:10;;;;;;;12.93;10.60;;;;;;;;;;5031892;28;20247;-77
2021/12/18 12:11:50;;;;;;;14.63;10.20;;;;;;;;;;5013291;28;20288;-77
2021/12/18 12:14:21;;;;;;;12.80;10.43;;;;;;;;;;5015529;28;20276;-77
2021/12/18 12:17:03;;;;;;;12.37;9.63;;;;;;;;;;5013066;28;20304;-77
2021/12/18 12:19:40;;;;;;;16.87;10.47;;;;;;;;;;5005606;28;20668;-77
2021/12/18 12:22:08;;;;;;;12.30;10.13;;;;;;;;;;5024840;28;20306;-77
2021/12/18 12:24:54;;;;;;;11.93;9.50;;;;;;;;;;5029899;28;20283;-78
2021/12/18 12:27:30;;;;;;;12.57;9.53;;;;;;;;;;5028605;28;20280;-78
2021/12/18 12:29:58;;;;;;;12.83;10.33;;;;;;;;;;5026475;28;20699;-77
2021/12/18 12:32:25;;;;;;;12.40;9.77;;;;;;;;;;5034563;28;20205;-77
2021/12/18 12:34:59;;;;;;;11.93;9.43;;;;;;;;;;5034724;28;20278;-77
2021/12/18 12:37:34;;;;;;;11.50;9.27;;;;;;;;;;5044524;28;20200;-77
2021/12/18 12:40:04;;;;;;;11.57;9.73;;;;;;;;;;5019494;28;20201;-77
2021/12/18 12:42:32;;;;;;;10.97;9.33;;;;;;;;;;5027753;28;20327;-77
2021/12/18 12:45:03;;;;;;;13.20;9.57;;;;;;;;;;5017342;28;20631;-77
2021/12/18 12:47:31;;;;;;;13.67;10.00;;;;;;;;;;5013397;28;20196;-77
2021/12/18 12:50:01;;;;;;;12.27;9.73;;;;;;;;;;5031311;28;20258;-76
2021/12/18 12:52:28;;;;;;;14.97;10.73;;;;;;;;;;5022965;28;20650;-78
2021/12/18 12:54:59;;;;;;;13.20;9.97;;;;;;;;;;5031747;28;20251;-78
2021/12/18 12:57:39;;;;;;;11.33;9.37;;;;;;;;;;5022199;28;20232;-78
2021/12/18 13:00:25;;;;;;;12.57;9.67;;;;;;;;;;5026871;28;20259;-78
2021/12/18 13:02:53;;;;;;;11.30;9.50;;;;;;;;;;5031543;28;20661;-78
2021/12/18 13:05:20;;;;;;;10.67;9.17;;;;;;;;;;5031715;28;20291;-78
2021/12/18 13:07:48;;;;;;;13.80;9.67;;;;;;;;;;5031625;28;20664;-78
2021/12/18 13:10:18;;;;;;;10.97;8.90;;;;;;;;;;5031298;28;20235;-78
2021/12/18 13:12:53;;;;;;;12.97;9.80;;;;;;;;;;5031230;28;20196;-78
2021/12/18 13:15:21;;;;;;;11.47;9.37;;;;;;;;;;5031343;28;20295;-79
2021/12/18 13:17:48;;;;;;;10.93;9.07;;;;;;;;;;5031653;28;20902;-78
2021/12/18 13:20:16;;;;;;;11.50;9.07;;;;;;;;;;5012121;28;20688;-78
2021/12/18 13:22:53;;;;;;;11.83;9.07;;;;;;;;;;5026397;28;20660;-78
2021/12/18 13:25:20;;;;;;;12.53;10.13;;;;;;;;;;5017949;28;20645;-78
2021/12/18 13:30:41;;;;;;;10.33;8.53;;;;;;;;;;5139216;27;20601;-78
2021/12/18 13:33:09;;;;;;;11.50;9.27;;;;;;;;;;5129366;27;20205;-79
2021/12/18 13:35:37;;;;;;;11.57;9.00;;;;;;;;;;5129880;28;20635;-79
2021/12/18 13:38:06;;;;;;;11.63;8.67;;;;;;;;;;5124501;28;20292;-78
2021/12/18 13:40:35;;;;;;;11.53;8.73;;;;;;;;;;5129337;27;20281;-78
2021/12/18 13:43:07;;;;;;;9.03;8.07;;;;;;;;;;5129395;28;20289;-78
2021/12/18 13:45:35;;;;;;;9.20;7.90;;;;;;;;;;5129004;28;20284;-78
2021/12/18 13:48:11;;;;;;;10.23;8.33;;;;;;;;;;5130015;28;20211;-78
2021/12/18 13:50:39;;;;;;;9.17;7.77;;;;;;;;;;5129397;28;20315;-78
2021/12/18 13:53:06;;;;;;;9.60;8.60;;;;;;;;;;5128762;28;20236;-78
2021/12/18 13:55:35;;;;;;;9.80;8.13;;;;;;;;;;5112025;28;20246;-78
2021/12/18 13:58:04;;;;;;;9.87;8.00;;;;;;;;;;5088027;28;20293;-78
2021/12/18 14:00:46;;;;;;;10.43;8.17;;;;;;;;;;5087939;28;20199;-78
2021/12/18 14:03:19;;;;;;;11.40;9.23;;;;;;;;;;5088162;28;20281;-78
2021/12/18 14:05:46;;;;;;;12.13;9.10;;;;;;;;;;5105785;28;20273;-78
2021/12/18 14:08:15;;;;;;;11.50;9.33;;;;;;;;;;5098956;28;20229;-78
2021/12/18 14:10:43;;;;;;;11.17;9.20;;;;;;;;;;5107593;28;20305;-79
2021/12/18 14:13:10;;;;;;;10.20;8.57;;;;;;;;;;5108022;28;20559;-78
2021/12/18 14:15:38;;;;;;;10.93;9.37;;;;;;;;;;5107977;28;20688;-78
2021/12/18 14:18:20;;;;;;;9.97;8.67;;;;;;;;;;5098570;28;20210;-78
2021/12/18 14:20:49;;;;;;;9.60;8.27;;;;;;;;;;5088027;28;20290;-78
2021/12/18 14:23:16;;;;;;;11.60;8.13;;;;;;;;;;5093070;28;20619;-78
2021/12/18 14:25:43;;;;;;;10.07;8.10;;;;;;;;;;5090983;28;20263;-78
2021/12/18 14:28:19;;;;;;;10.80;7.63;;;;;;;;;;5103963;28;20285;-79
2021/12/18 14:30:46;;;;;;;9.77;8.03;;;;;;;;;;5087231;28;20597;-78
2021/12/18 14:33:15;;;;;;;9.50;7.60;;;;;;;;;;5095652;28;20572;-77
2021/12/18 14:35:50;;;;;;;9.63;7.80;;;;;;;;;;5089668;28;20285;-77
2021/12/18 14:38:17;;;;;;;10.07;7.40;;;;;;;;;;5103810;28;20225;-77
2021/12/18 14:40:44;;;;;;;9.10;7.80;;;;;;;;;;5084070;28;20298;-78
2021/12/18 14:43:14;;;;;;;8.30;6.80;;;;;;;;;;5089592;28;20283;-77
2021/12/18 14:45:42;;;;;;;10.03;6.90;;;;;;;;;;5082243;28;20196;-77
2021/12/18 14:48:09;;;;;;;9.40;7.17;;;;;;;;;;5073563;28;20282;-77
2021/12/18 14:50:37;;;;;;;9.83;6.77;;;;;;;;;;5082245;28;20660;-77
2021/12/18 14:53:14;;;;;;;8.97;6.57;;;;;;;;;;5086042;28;20198;-76
2021/12/18 14:55:47;;;;;;;8.67;7.03;;;;;;;;;;5091181;28;20226;-77
2021/12/18 14:58:17;;;;;;;9.50;6.83;;;;;;;;;;5084790;28;20301;-77
2021/12/18 15:00:46;;;;;;;9.70;7.17;;;;;;;;;;5083191;28;20277;-79
2021/12/18 15:03:19;;;;;;;7.90;6.20;;;;;;;;;;5083204;28;20286;-80
2021/12/18 15:05:48;;;;;;;8.20;6.40;;;;;;;;;;5089079;28;20645;-79
2021/12/18 15:08:18;;;;;;;9.30;6.50;;;;;;;;;;5079847;28;20205;-81